PWSweather.com
Personal Weather Stations
Station Observations
HOODRIVER
Hood River, OR 97031

Hood River, OR 97031

Lat: 45.686, Lon: -121.566

Elevation: 700

Station Type: Davis VantagePro2

http://www.threefools.org/weewx

High Low Average
Temperature 81.7°F27.6°C 60.9°F16.1°C 70.4°F21.3°C
Dew Point 58.0°F14.4°C 50.0°F10.0°C 55.4°F13.0°C
Winds 10.0 mph 16.1 kmh Calm Calm 5.0 mph W8.0 kmh W
Wind Gusts 26.0 mph41.8 kmh 2.0 mph3.2 kmh 13.0 mph20.9 kmh
Humidity 82% 34% 61%
Pressure 29.95 in1014.2 mb 29.83 in1010.2 mb -
Precipitation 0.00 in0.0 mm - -
Hour Temp Dew Point Humidity Winds Wind Gusts Pressure Precip Precip Rate Daily Precip Total
12:00 AM 65.1°F18.4°C 56.2°F13.4°C 73% 2.0 mph WNW3.2 kmh WNW 4.0 mph6.4 kmh 29.82 in1009.8 mb 0.00 in0.0 mm 0.00 in0.0 mm 0.00 in0.0 mm
12:05 AM 64.9°F18.3°C 56.4°F13.6°C 74% 1.0 mph WNW1.6 kmh WNW 3.0 mph4.8 kmh 29.83 in1010.2 mb 0.00 in0.0 mm 0.00 in0.0 mm 0.00 in0.0 mm
12:10 AM 64.9°F18.3°C 56.4°F13.6°C 74% 2.0 mph W3.2 kmh W 6.0 mph9.7 kmh 29.83 in1010.2 mb 0.00 in0.0 mm 0.00 in0.0 mm 0.00 in0.0 mm
12:15 AM 65.1°F18.4°C 56.6°F13.7°C 74% 3.0 mph WNW4.8 kmh WNW 7.0 mph11.3 kmh 29.83 in1010.2 mb 0.00 in0.0 mm 0.00 in0.0 mm 0.00 in0.0 mm
12:20 AM 65.0°F18.3°C 56.5°F13.6°C 74% 2.0 mph NW3.2 kmh NW 10.0 mph16.1 kmh 29.83 in1010.2 mb 0.00 in0.0 mm 0.00 in0.0 mm 0.00 in0.0 mm
12:25 AM 64.8°F18.2°C 56.3°F13.5°C 74% 3.0 mph WNW4.8 kmh WNW 9.0 mph14.5 kmh 29.83 in1010.2 mb 0.00 in0.0 mm 0.00 in0.0 mm 0.00 in0.0 mm
12:30 AM 64.9°F18.3°C 56.0°F13.3°C 73% 3.0 mph WNW4.8 kmh WNW 12.0 mph19.3 kmh 29.83 in1010.2 mb 0.00 in0.0 mm 0.00 in0.0 mm 0.00 in0.0 mm
12:35 AM 65.2°F18.4°C 56.3°F13.5°C 73% 2.0 mph WNW3.2 kmh WNW 5.0 mph8.0 kmh 29.84 in1010.5 mb 0.00 in0.0 mm 0.00 in0.0 mm 0.00 in0.0 mm
12:40 AM 65.5°F18.6°C 55.8°F13.2°C 71% 4.0 mph W6.4 kmh W 14.0 mph22.5 kmh 29.83 in1010.2 mb 0.00 in0.0 mm 0.00 in0.0 mm 0.00 in0.0 mm
12:45 AM 65.8°F18.8°C 55.7°F13.2°C 70% 4.0 mph 6.4 kmh 11.0 mph17.7 kmh 29.83 in1010.2 mb 0.00 in0.0 mm 0.00 in0.0 mm 0.00 in0.0 mm
12:50 AM 66.3°F19.1°C 55.4°F13.0°C 68% 6.0 mph W9.7 kmh W 16.0 mph25.7 kmh 29.83 in1010.2 mb 0.00 in0.0 mm 0.00 in0.0 mm 0.00 in0.0 mm
12:55 AM 66.7°F19.3°C 55.4°F13.0°C 67% 6.0 mph W9.7 kmh W 15.0 mph24.1 kmh 29.83 in1010.2 mb 0.00 in0.0 mm 0.00 in0.0 mm 0.00 in0.0 mm
01:00 AM 66.8°F19.3°C 55.9°F13.3°C 68% 6.0 mph W9.7 kmh W 14.0 mph22.5 kmh 29.83 in1010.2 mb 0.00 in0.0 mm 0.00 in0.0 mm 0.00 in0.0 mm
01:05 AM 66.8°F19.3°C 55.9°F13.3°C 68% 5.0 mph W8.0 kmh W 19.0 mph30.6 kmh 29.83 in1010.2 mb 0.00 in0.0 mm 0.00 in0.0 mm 0.00 in0.0 mm
01:10 AM 66.9°F19.4°C 56.0°F13.3°C 68% 7.0 mph WNW11.3 kmh WNW 19.0 mph30.6 kmh 29.83 in1010.2 mb 0.00 in0.0 mm 0.00 in0.0 mm 0.00 in0.0 mm
01:15 AM 66.7°F19.3°C 55.4°F13.0°C 67% 6.0 mph WNW9.7 kmh WNW 13.0 mph20.9 kmh 29.84 in1010.5 mb 0.00 in0.0 mm 0.00 in0.0 mm 0.00 in0.0 mm
01:20 AM 66.7°F19.3°C 55.8°F13.2°C 68% 5.0 mph W8.0 kmh W 10.0 mph16.1 kmh 29.84 in1010.5 mb 0.00 in0.0 mm 0.00 in0.0 mm 0.00 in0.0 mm
01:25 AM 66.6°F19.2°C 55.7°F13.2°C 68% 5.0 mph W8.0 kmh W 13.0 mph20.9 kmh 29.84 in1010.5 mb 0.00 in0.0 mm 0.00 in0.0 mm 0.00 in0.0 mm
01:30 AM 66.6°F19.2°C 56.1°F13.4°C 69% 5.0 mph W8.0 kmh W 12.0 mph19.3 kmh 29.84 in1010.5 mb 0.00 in0.0 mm 0.00 in0.0 mm 0.00 in0.0 mm
01:35 AM 66.4°F19.1°C 55.9°F13.3°C 69% 4.0 mph W6.4 kmh W 9.0 mph14.5 kmh 29.84 in1010.5 mb 0.00 in0.0 mm 0.00 in0.0 mm 0.00 in0.0 mm
01:40 AM 66.1°F18.9°C 55.6°F13.1°C 69% 4.0 mph W6.4 kmh W 11.0 mph17.7 kmh 29.84 in1010.5 mb 0.00 in0.0 mm 0.00 in0.0 mm 0.00 in0.0 mm
01:45 AM 65.2°F18.4°C 55.9°F13.3°C 72% 2.0 mph NW3.2 kmh NW 6.0 mph9.7 kmh 29.84 in1010.5 mb 0.00 in0.0 mm 0.00 in0.0 mm 0.00 in0.0 mm
01:50 AM 64.8°F18.2°C 55.9°F13.3°C 73% 4.0 mph W6.4 kmh W 10.0 mph16.1 kmh 29.85 in1010.8 mb 0.00 in0.0 mm 0.00 in0.0 mm 0.00 in0.0 mm
01:55 AM 65.1°F18.4°C 55.8°F13.2°C 72% 3.0 mph WNW4.8 kmh WNW 10.0 mph16.1 kmh 29.84 in1010.5 mb 0.00 in0.0 mm 0.00 in0.0 mm 0.00 in0.0 mm
02:00 AM 65.2°F18.4°C 55.6°F13.1°C 71% 5.0 mph NNW8.0 kmh NNW 15.0 mph24.1 kmh 29.84 in1010.5 mb 0.00 in0.0 mm 0.00 in0.0 mm 0.00 in0.0 mm
02:05 AM 65.3°F18.5°C 55.3°F12.9°C 70% 4.0 mph NNW6.4 kmh NNW 10.0 mph16.1 kmh 29.84 in1010.5 mb 0.00 in0.0 mm 0.00 in0.0 mm 0.00 in0.0 mm
02:10 AM 65.6°F18.7°C 55.5°F13.1°C 70% 5.0 mph NW8.0 kmh NW 15.0 mph24.1 kmh 29.85 in1010.8 mb 0.00 in0.0 mm 0.00 in0.0 mm 0.00 in0.0 mm
02:15 AM 65.6°F18.7°C 55.5°F13.1°C 70% 3.0 mph WNW4.8 kmh WNW 9.0 mph14.5 kmh 29.85 in1010.8 mb 0.00 in0.0 mm 0.00 in0.0 mm 0.00 in0.0 mm
02:20 AM 65.4°F18.6°C 55.4°F13.0°C 70% 3.0 mph NW4.8 kmh NW 8.0 mph12.9 kmh 29.85 in1010.8 mb 0.00 in0.0 mm 0.00 in0.0 mm 0.00 in0.0 mm
02:25 AM 64.8°F18.2°C 55.6°F13.1°C 72% 3.0 mph NW4.8 kmh NW 5.0 mph8.0 kmh 29.86 in1011.2 mb 0.00 in0.0 mm 0.00 in0.0 mm 0.00 in0.0 mm
02:30 AM 64.4°F18.0°C 55.6°F13.1°C 73% 2.0 mph WNW3.2 kmh WNW 4.0 mph6.4 kmh 29.85 in1010.8 mb 0.00 in0.0 mm 0.00 in0.0 mm 0.00 in0.0 mm
02:35 AM 64.0°F17.8°C 55.2°F12.9°C 73% 3.0 mph NW4.8 kmh NW 10.0 mph16.1 kmh 29.85 in1010.8 mb 0.00 in0.0 mm 0.00 in0.0 mm 0.00 in0.0 mm
02:40 AM 64.0°F17.8°C 55.2°F12.9°C 73% 3.0 mph WNW4.8 kmh WNW 6.0 mph9.7 kmh 29.86 in1011.2 mb 0.00 in0.0 mm 0.00 in0.0 mm 0.00 in0.0 mm
02:45 AM 63.8°F17.7°C 55.7°F13.2°C 75% 2.0 mph 3.2 kmh 5.0 mph8.0 kmh 29.86 in1011.2 mb 0.00 in0.0 mm 0.00 in0.0 mm 0.00 in0.0 mm
02:50 AM 64.1°F17.8°C 55.6°F13.1°C 74% 4.0 mph NW6.4 kmh NW 12.0 mph19.3 kmh 29.86 in1011.2 mb 0.00 in0.0 mm 0.00 in0.0 mm 0.00 in0.0 mm
02:55 AM 64.0°F17.8°C 55.5°F13.1°C 74% 3.0 mph W4.8 kmh W 11.0 mph17.7 kmh 29.86 in1011.2 mb 0.00 in0.0 mm 0.00 in0.0 mm 0.00 in0.0 mm
03:00 AM 64.3°F17.9°C 55.8°F13.2°C 74% 4.0 mph W6.4 kmh W 12.0 mph19.3 kmh 29.86 in1011.2 mb 0.00 in0.0 mm 0.00 in0.0 mm 0.00 in0.0 mm
03:05 AM 64.3°F17.9°C 55.8°F13.2°C 74% 3.0 mph W4.8 kmh W 8.0 mph12.9 kmh 29.86 in1011.2 mb 0.00 in0.0 mm 0.00 in0.0 mm 0.00 in0.0 mm
03:10 AM 64.0°F17.8°C 55.5°F13.1°C 74% 4.0 mph NW6.4 kmh NW 12.0 mph19.3 kmh 29.86 in1011.2 mb 0.00 in0.0 mm 0.00 in0.0 mm 0.00 in0.0 mm
03:15 AM 63.9°F17.7°C 55.4°F13.0°C 74% 3.0 mph WNW4.8 kmh WNW 12.0 mph19.3 kmh 29.86 in1011.2 mb 0.00 in0.0 mm 0.00 in0.0 mm 0.00 in0.0 mm
03:20 AM 64.0°F17.8°C 55.5°F13.1°C 74% 5.0 mph W8.0 kmh W 14.0 mph22.5 kmh 29.86 in1011.2 mb 0.00 in0.0 mm 0.00 in0.0 mm 0.00 in0.0 mm
03:25 AM 64.1°F17.8°C 55.6°F13.1°C 74% 6.0 mph W9.7 kmh W 17.0 mph27.4 kmh 29.87 in1011.5 mb 0.00 in0.0 mm 0.00 in0.0 mm 0.00 in0.0 mm
03:30 AM 64.2°F17.9°C 55.7°F13.2°C 74% 3.0 mph WNW4.8 kmh WNW 12.0 mph19.3 kmh 29.87 in1011.5 mb 0.00 in0.0 mm 0.00 in0.0 mm 0.00 in0.0 mm
03:35 AM 64.3°F17.9°C 55.8°F13.2°C 74% 5.0 mph WNW8.0 kmh WNW 17.0 mph27.4 kmh 29.87 in1011.5 mb 0.00 in0.0 mm 0.00 in0.0 mm 0.00 in0.0 mm
03:40 AM 64.2°F17.9°C 55.7°F13.2°C 74% 4.0 mph WSW6.4 kmh WSW 13.0 mph20.9 kmh 29.87 in1011.5 mb 0.00 in0.0 mm 0.00 in0.0 mm 0.00 in0.0 mm
03:45 AM 64.1°F17.8°C 55.6°F13.1°C 74% 6.0 mph W9.7 kmh W 15.0 mph24.1 kmh 29.87 in1011.5 mb 0.00 in0.0 mm 0.00 in0.0 mm 0.00 in0.0 mm
03:50 AM 63.6°F17.6°C 55.5°F13.1°C 75% 2.0 mph W3.2 kmh W 13.0 mph20.9 kmh 29.87 in1011.5 mb 0.00 in0.0 mm 0.00 in0.0 mm 0.00 in0.0 mm
03:55 AM 63.7°F17.6°C 55.6°F13.1°C 75% 6.0 mph W9.7 kmh W 17.0 mph27.4 kmh 29.87 in1011.5 mb 0.00 in0.0 mm 0.00 in0.0 mm 0.00 in0.0 mm
04:00 AM 63.6°F17.6°C 55.9°F13.3°C 76% 4.0 mph WSW6.4 kmh WSW 9.0 mph14.5 kmh 29.87 in1011.5 mb 0.00 in0.0 mm 0.00 in0.0 mm 0.00 in0.0 mm
04:05 AM 63.2°F17.3°C 55.5°F13.1°C 76% 4.0 mph WNW6.4 kmh WNW 14.0 mph22.5 kmh 29.87 in1011.5 mb 0.00 in0.0 mm 0.00 in0.0 mm 0.00 in0.0 mm
04:10 AM 63.1°F17.3°C 55.8°F13.2°C 77% 3.0 mph WNW4.8 kmh WNW 12.0 mph19.3 kmh 29.88 in1011.9 mb 0.00 in0.0 mm 0.00 in0.0 mm 0.00 in0.0 mm
04:15 AM 62.9°F17.2°C 55.6°F13.1°C 77% 3.0 mph WNW4.8 kmh WNW 11.0 mph17.7 kmh 29.87 in1011.5 mb 0.00 in0.0 mm 0.00 in0.0 mm 0.00 in0.0 mm
04:20 AM 63.1°F17.3°C 55.8°F13.2°C 77% 4.0 mph W6.4 kmh W 9.0 mph14.5 kmh 29.88 in1011.9 mb 0.00 in0.0 mm 0.00 in0.0 mm 0.00 in0.0 mm
04:25 AM 63.1°F17.3°C 55.8°F13.2°C 77% 3.0 mph W4.8 kmh W 11.0 mph17.7 kmh 29.88 in1011.9 mb 0.00 in0.0 mm 0.00 in0.0 mm 0.00 in0.0 mm
04:30 AM 62.9°F17.2°C 55.6°F13.1°C 77% 3.0 mph W4.8 kmh W 6.0 mph9.7 kmh 29.88 in1011.9 mb 0.00 in0.0 mm 0.00 in0.0 mm 0.00 in0.0 mm
04:35 AM 62.9°F17.2°C 55.6°F13.1°C 77% 4.0 mph WSW6.4 kmh WSW 13.0 mph20.9 kmh 29.88 in1011.9 mb 0.00 in0.0 mm 0.00 in0.0 mm 0.00 in0.0 mm
04:40 AM 62.9°F17.2°C 55.6°F13.1°C 77% 4.0 mph WSW6.4 kmh WSW 13.0 mph20.9 kmh 29.88 in1011.9 mb 0.00 in0.0 mm 0.00 in0.0 mm 0.00 in0.0 mm
04:45 AM 62.9°F17.2°C 55.6°F13.1°C 77% 5.0 mph W8.0 kmh W 19.0 mph30.6 kmh 29.88 in1011.9 mb 0.00 in0.0 mm 0.00 in0.0 mm 0.00 in0.0 mm
04:50 AM 62.9°F17.2°C 55.6°F13.1°C 77% 5.0 mph W8.0 kmh W 13.0 mph20.9 kmh 29.88 in1011.9 mb 0.00 in0.0 mm 0.00 in0.0 mm 0.00 in0.0 mm
04:55 AM 62.7°F17.1°C 55.7°F13.2°C 78% 4.0 mph WSW6.4 kmh WSW 12.0 mph19.3 kmh 29.88 in1011.9 mb 0.00 in0.0 mm 0.00 in0.0 mm 0.00 in0.0 mm
05:00 AM 62.6°F17.0°C 55.6°F13.1°C 78% 6.0 mph WNW9.7 kmh WNW 18.0 mph29.0 kmh 29.88 in1011.9 mb 0.00 in0.0 mm 0.00 in0.0 mm 0.00 in0.0 mm
05:05 AM 62.6°F17.0°C 55.6°F13.1°C 78% 5.0 mph WSW8.0 kmh WSW 11.0 mph17.7 kmh 29.88 in1011.9 mb 0.00 in0.0 mm 0.00 in0.0 mm 0.00 in0.0 mm
05:10 AM 62.4°F16.9°C 55.4°F13.0°C 78% 5.0 mph W8.0 kmh W 13.0 mph20.9 kmh 29.88 in1011.9 mb 0.00 in0.0 mm 0.00 in0.0 mm 0.00 in0.0 mm
05:15 AM 62.4°F16.9°C 55.4°F13.0°C 78% 6.0 mph W9.7 kmh W 15.0 mph24.1 kmh 29.88 in1011.9 mb 0.00 in0.0 mm 0.00 in0.0 mm 0.00 in0.0 mm
05:20 AM 62.4°F16.9°C 55.4°F13.0°C 78% 5.0 mph W8.0 kmh W 13.0 mph20.9 kmh 29.88 in1011.9 mb 0.00 in0.0 mm 0.00 in0.0 mm 0.00 in0.0 mm
05:25 AM 62.2°F16.8°C 55.6°F13.1°C 79% 5.0 mph W8.0 kmh W 14.0 mph22.5 kmh 29.88 in1011.9 mb 0.00 in0.0 mm 0.00 in0.0 mm 0.00 in0.0 mm
05:30 AM 62.1°F16.7°C 55.5°F13.1°C 79% 5.0 mph W8.0 kmh W 16.0 mph25.7 kmh 29.88 in1011.9 mb 0.00 in0.0 mm 0.00 in0.0 mm 0.00 in0.0 mm
05:35 AM 62.0°F16.7°C 55.8°F13.2°C 80% 5.0 mph W8.0 kmh W 15.0 mph24.1 kmh 29.88 in1011.9 mb 0.00 in0.0 mm 0.00 in0.0 mm 0.00 in0.0 mm
05:40 AM 62.1°F16.7°C 55.9°F13.3°C 80% 6.0 mph W9.7 kmh W 19.0 mph30.6 kmh 29.89 in1012.2 mb 0.00 in0.0 mm 0.00 in0.0 mm 0.00 in0.0 mm
05:45 AM 62.1°F16.7°C 55.5°F13.1°C 79% 7.0 mph W11.3 kmh W 18.0 mph29.0 kmh 29.89 in1012.2 mb 0.00 in0.0 mm 0.00 in0.0 mm 0.00 in0.0 mm
05:50 AM 62.0°F16.7°C 55.8°F13.2°C 80% 6.0 mph WNW9.7 kmh WNW 15.0 mph24.1 kmh 29.89 in1012.2 mb 0.00 in0.0 mm 0.00 in0.0 mm 0.00 in0.0 mm
05:55 AM 61.9°F16.6°C 55.7°F13.2°C 80% 5.0 mph W8.0 kmh W 16.0 mph25.7 kmh 29.89 in1012.2 mb 0.00 in0.0 mm 0.00 in0.0 mm 0.00 in0.0 mm
06:00 AM 61.7°F16.5°C 55.5°F13.1°C 80% 6.0 mph WNW9.7 kmh WNW 17.0 mph27.4 kmh 29.89 in1012.2 mb 0.00 in0.0 mm 0.00 in0.0 mm 0.00 in0.0 mm
06:05 AM 61.7°F16.5°C 55.5°F13.1°C 80% 7.0 mph WSW11.3 kmh WSW 18.0 mph29.0 kmh 29.90 in1012.5 mb 0.00 in0.0 mm 0.00 in0.0 mm 0.00 in0.0 mm
06:10 AM 61.6°F16.4°C 55.7°F13.2°C 81% 8.0 mph W12.9 kmh W 16.0 mph25.7 kmh 29.90 in1012.5 mb 0.00 in0.0 mm 0.00 in0.0 mm 0.00 in0.0 mm
06:15 AM 61.4°F16.3°C 55.5°F13.1°C 81% 7.0 mph W11.3 kmh W 21.0 mph33.8 kmh 29.90 in1012.5 mb 0.00 in0.0 mm 0.00 in0.0 mm 0.00 in0.0 mm
06:20 AM 61.2°F16.2°C 55.3°F12.9°C 81% 6.0 mph W9.7 kmh W 14.0 mph22.5 kmh 29.91 in1012.9 mb 0.00 in0.0 mm 0.00 in0.0 mm 0.00 in0.0 mm
06:25 AM 61.1°F16.2°C 55.6°F13.1°C 82% 6.0 mph WSW9.7 kmh WSW 15.0 mph24.1 kmh 29.90 in1012.5 mb 0.00 in0.0 mm 0.00 in0.0 mm 0.00 in0.0 mm
06:30 AM 60.9°F16.1°C 55.4°F13.0°C 82% 5.0 mph W8.0 kmh W 11.0 mph17.7 kmh 29.91 in1012.9 mb 0.00 in0.0 mm 0.00 in0.0 mm 0.00 in0.0 mm
06:35 AM 61.0°F16.1°C 55.5°F13.1°C 82% 3.0 mph W4.8 kmh W 9.0 mph14.5 kmh 29.91 in1012.9 mb 0.00 in0.0 mm 0.00 in0.0 mm 0.00 in0.0 mm
06:40 AM 61.3°F16.3°C 55.8°F13.2°C 82% 5.0 mph W8.0 kmh W 12.0 mph19.3 kmh 29.91 in1012.9 mb 0.00 in0.0 mm 0.00 in0.0 mm 0.00 in0.0 mm
06:45 AM 61.6°F16.4°C 55.7°F13.2°C 81% 5.0 mph WSW8.0 kmh WSW 16.0 mph25.7 kmh 29.91 in1012.9 mb 0.00 in0.0 mm 0.00 in0.0 mm 0.00 in0.0 mm
06:50 AM 61.8°F16.6°C 55.6°F13.1°C 80% 5.0 mph W8.0 kmh W 15.0 mph24.1 kmh 29.91 in1012.9 mb 0.00 in0.0 mm 0.00 in0.0 mm 0.00 in0.0 mm
06:55 AM 62.3°F16.8°C 56.0°F13.3°C 80% 6.0 mph W9.7 kmh W 15.0 mph24.1 kmh 29.91 in1012.9 mb 0.00 in0.0 mm 0.00 in0.0 mm 0.00 in0.0 mm
07:00 AM 62.5°F16.9°C 55.9°F13.3°C 79% 6.0 mph W9.7 kmh W 13.0 mph20.9 kmh 29.91 in1012.9 mb 0.00 in0.0 mm 0.00 in0.0 mm 0.00 in0.0 mm
07:05 AM 62.7°F17.1°C 55.7°F13.2°C 78% 7.0 mph W11.3 kmh W 17.0 mph27.4 kmh 29.91 in1012.9 mb 0.00 in0.0 mm 0.00 in0.0 mm 0.00 in0.0 mm
07:10 AM 63.0°F17.2°C 56.0°F13.3°C 78% 7.0 mph W11.3 kmh W 17.0 mph27.4 kmh 29.91 in1012.9 mb 0.00 in0.0 mm 0.00 in0.0 mm 0.00 in0.0 mm
07:15 AM 63.1°F17.3°C 55.8°F13.2°C 77% 4.0 mph W6.4 kmh W 12.0 mph19.3 kmh 29.91 in1012.9 mb 0.00 in0.0 mm 0.00 in0.0 mm 0.00 in0.0 mm
07:20 AM 63.2°F17.3°C 55.9°F13.3°C 77% 4.0 mph NW6.4 kmh NW 12.0 mph19.3 kmh 29.91 in1012.9 mb 0.00 in0.0 mm 0.00 in0.0 mm 0.00 in0.0 mm
07:25 AM 63.4°F17.4°C 56.1°F13.4°C 77% 3.0 mph SW4.8 kmh SW 12.0 mph19.3 kmh 29.92 in1013.2 mb 0.00 in0.0 mm 0.00 in0.0 mm 0.00 in0.0 mm
07:30 AM 63.4°F17.4°C 56.1°F13.4°C 77% 6.0 mph WSW9.7 kmh WSW 14.0 mph22.5 kmh 29.92 in1013.2 mb 0.00 in0.0 mm 0.00 in0.0 mm 0.00 in0.0 mm
07:35 AM 63.2°F17.3°C 55.9°F13.3°C 77% 6.0 mph WSW9.7 kmh WSW 16.0 mph25.7 kmh 29.92 in1013.2 mb 0.00 in0.0 mm 0.00 in0.0 mm 0.00 in0.0 mm
07:40 AM 63.5°F17.5°C 55.8°F13.2°C 76% 7.0 mph W11.3 kmh W 15.0 mph24.1 kmh 29.92 in1013.2 mb 0.00 in0.0 mm 0.00 in0.0 mm 0.00 in0.0 mm
07:45 AM 63.8°F17.7°C 55.7°F13.2°C 75% 7.0 mph W11.3 kmh W 17.0 mph27.4 kmh 29.92 in1013.2 mb 0.00 in0.0 mm 0.00 in0.0 mm 0.00 in0.0 mm
07:50 AM 64.1°F17.8°C 56.0°F13.3°C 75% 7.0 mph W11.3 kmh W 14.0 mph22.5 kmh 29.92 in1013.2 mb 0.00 in0.0 mm 0.00 in0.0 mm 0.00 in0.0 mm
07:55 AM 64.3°F17.9°C 55.8°F13.2°C 74% 6.0 mph WNW9.7 kmh WNW 14.0 mph22.5 kmh 29.92 in1013.2 mb 0.00 in0.0 mm 0.00 in0.0 mm 0.00 in0.0 mm
08:00 AM 64.5°F18.1°C 56.0°F13.3°C 74% 6.0 mph WSW9.7 kmh WSW 13.0 mph20.9 kmh 29.92 in1013.2 mb 0.00 in0.0 mm 0.00 in0.0 mm 0.00 in0.0 mm
08:05 AM 64.5°F18.1°C 56.0°F13.3°C 74% 6.0 mph WNW9.7 kmh WNW 17.0 mph27.4 kmh 29.92 in1013.2 mb 0.00 in0.0 mm 0.00 in0.0 mm 0.00 in0.0 mm
08:10 AM 64.6°F18.1°C 56.1°F13.4°C 74% 6.0 mph WNW9.7 kmh WNW 20.0 mph32.2 kmh 29.92 in1013.2 mb 0.00 in0.0 mm 0.00 in0.0 mm 0.00 in0.0 mm
08:15 AM 64.8°F18.2°C 55.9°F13.3°C 73% 8.0 mph W12.9 kmh W 16.0 mph25.7 kmh 29.92 in1013.2 mb 0.00 in0.0 mm 0.00 in0.0 mm 0.00 in0.0 mm
08:20 AM 64.8°F18.2°C 55.9°F13.3°C 73% 6.0 mph W9.7 kmh W 17.0 mph27.4 kmh 29.92 in1013.2 mb 0.00 in0.0 mm 0.00 in0.0 mm 0.00 in0.0 mm
08:25 AM 64.9°F18.3°C 56.4°F13.6°C 74% 6.0 mph WNW9.7 kmh WNW 19.0 mph30.6 kmh 29.92 in1013.2 mb 0.00 in0.0 mm 0.00 in0.0 mm 0.00 in0.0 mm
08:30 AM 64.9°F18.3°C 56.0°F13.3°C 73% 7.0 mph W11.3 kmh W 20.0 mph32.2 kmh 29.92 in1013.2 mb 0.00 in0.0 mm 0.00 in0.0 mm 0.00 in0.0 mm
08:35 AM 64.7°F18.2°C 56.2°F13.4°C 74% 8.0 mph W12.9 kmh W 19.0 mph30.6 kmh 29.93 in1013.5 mb 0.00 in0.0 mm 0.00 in0.0 mm 0.00 in0.0 mm
08:40 AM 64.6°F18.1°C 56.1°F13.4°C 74% 8.0 mph W12.9 kmh W 19.0 mph30.6 kmh 29.93 in1013.5 mb 0.00 in0.0 mm 0.00 in0.0 mm 0.00 in0.0 mm
08:45 AM 64.7°F18.2°C 56.2°F13.4°C 74% 6.0 mph WNW9.7 kmh WNW 14.0 mph22.5 kmh 29.93 in1013.5 mb 0.00 in0.0 mm 0.00 in0.0 mm 0.00 in0.0 mm
08:50 AM 65.1°F18.4°C 56.6°F13.7°C 74% 5.0 mph W8.0 kmh W 13.0 mph20.9 kmh 29.93 in1013.5 mb 0.00 in0.0 mm 0.00 in0.0 mm 0.00 in0.0 mm
08:55 AM 65.2°F18.4°C 56.7°F13.7°C 74% 6.0 mph WNW9.7 kmh WNW 19.0 mph30.6 kmh 29.93 in1013.5 mb 0.00 in0.0 mm 0.00 in0.0 mm 0.00 in0.0 mm
09:00 AM 65.6°F18.7°C 56.3°F13.5°C 72% 5.0 mph W8.0 kmh W 15.0 mph24.1 kmh 29.93 in1013.5 mb 0.00 in0.0 mm 0.00 in0.0 mm 0.00 in0.0 mm
09:05 AM 65.9°F18.8°C 57.0°F13.9°C 73% 4.0 mph W6.4 kmh W 11.0 mph17.7 kmh 29.93 in1013.5 mb 0.00 in0.0 mm 0.00 in0.0 mm 0.00 in0.0 mm
09:10 AM 65.9°F18.8°C 56.6°F13.7°C 72% 6.0 mph WNW9.7 kmh WNW 13.0 mph20.9 kmh 29.93 in1013.5 mb 0.00 in0.0 mm 0.00 in0.0 mm 0.00 in0.0 mm
09:15 AM 65.8°F18.8°C 56.5°F13.6°C 72% 6.0 mph WNW9.7 kmh WNW 13.0 mph20.9 kmh 29.94 in1013.9 mb 0.00 in0.0 mm 0.00 in0.0 mm 0.00 in0.0 mm
09:20 AM 66.0°F18.9°C 56.7°F13.7°C 72% 4.0 mph WNW6.4 kmh WNW 12.0 mph19.3 kmh 29.93 in1013.5 mb 0.00 in0.0 mm 0.00 in0.0 mm 0.00 in0.0 mm
09:25 AM 66.7°F19.3°C 57.0°F13.9°C 71% 4.0 mph NW6.4 kmh NW 13.0 mph20.9 kmh 29.93 in1013.5 mb 0.00 in0.0 mm 0.00 in0.0 mm 0.00 in0.0 mm
09:30 AM 67.0°F19.4°C 56.9°F13.8°C 70% 4.0 mph WSW6.4 kmh WSW 14.0 mph22.5 kmh 29.93 in1013.5 mb 0.00 in0.0 mm 0.00 in0.0 mm 0.00 in0.0 mm
09:35 AM 67.5°F19.7°C 57.4°F14.1°C 70% 3.0 mph W4.8 kmh W 10.0 mph16.1 kmh 29.93 in1013.5 mb 0.00 in0.0 mm 0.00 in0.0 mm 0.00 in0.0 mm
09:40 AM 68.0°F20.0°C 57.0°F13.9°C 68% 4.0 mph NW6.4 kmh NW 15.0 mph24.1 kmh 29.94 in1013.9 mb 0.00 in0.0 mm 0.00 in0.0 mm 0.00 in0.0 mm
09:45 AM 68.6°F20.3°C 57.2°F14.0°C 67% 4.0 mph NW6.4 kmh NW 7.0 mph11.3 kmh 29.94 in1013.9 mb 0.00 in0.0 mm 0.00 in0.0 mm 0.00 in0.0 mm
09:50 AM 68.5°F20.3°C 57.1°F13.9°C 67% 5.0 mph NW8.0 kmh NW 13.0 mph20.9 kmh 29.94 in1013.9 mb 0.00 in0.0 mm 0.00 in0.0 mm 0.00 in0.0 mm
09:55 AM 69.2°F20.7°C 57.3°F14.1°C 66% 3.0 mph WNW4.8 kmh WNW 6.0 mph9.7 kmh 29.95 in1014.2 mb 0.00 in0.0 mm 0.00 in0.0 mm 0.00 in0.0 mm
10:00 AM 69.3°F20.7°C 57.0°F13.9°C 65% 4.0 mph W6.4 kmh W 10.0 mph16.1 kmh 29.95 in1014.2 mb 0.00 in0.0 mm 0.00 in0.0 mm 0.00 in0.0 mm
10:05 AM 69.2°F20.7°C 57.3°F14.1°C 66% 4.0 mph WNW6.4 kmh WNW 11.0 mph17.7 kmh 29.95 in1014.2 mb 0.00 in0.0 mm 0.00 in0.0 mm 0.00 in0.0 mm
10:10 AM 68.7°F20.4°C 56.4°F13.6°C 65% 8.0 mph W12.9 kmh W 14.0 mph22.5 kmh 29.95 in1014.2 mb 0.00 in0.0 mm 0.00 in0.0 mm 0.00 in0.0 mm
10:15 AM 68.8°F20.4°C 56.5°F13.6°C 65% 7.0 mph W11.3 kmh W 17.0 mph27.4 kmh 29.94 in1013.9 mb 0.00 in0.0 mm 0.00 in0.0 mm 0.00 in0.0 mm
10:20 AM 69.0°F20.6°C 56.7°F13.7°C 65% 7.0 mph WSW11.3 kmh WSW 17.0 mph27.4 kmh 29.94 in1013.9 mb 0.00 in0.0 mm 0.00 in0.0 mm 0.00 in0.0 mm
10:25 AM 69.3°F20.7°C 56.6°F13.7°C 64% 6.0 mph WNW9.7 kmh WNW 20.0 mph32.2 kmh 29.94 in1013.9 mb 0.00 in0.0 mm 0.00 in0.0 mm 0.00 in0.0 mm
10:30 AM 68.9°F20.5°C 56.6°F13.7°C 65% 7.0 mph W11.3 kmh W 16.0 mph25.7 kmh 29.93 in1013.5 mb 0.00 in0.0 mm 0.00 in0.0 mm 0.00 in0.0 mm
10:35 AM 68.9°F20.5°C 56.6°F13.7°C 65% 7.0 mph WSW11.3 kmh WSW 20.0 mph32.2 kmh 29.93 in1013.5 mb 0.00 in0.0 mm 0.00 in0.0 mm 0.00 in0.0 mm
10:40 AM 68.7°F20.4°C 56.9°F13.8°C 66% 8.0 mph W12.9 kmh W 18.0 mph29.0 kmh 29.93 in1013.5 mb 0.00 in0.0 mm 0.00 in0.0 mm 0.00 in0.0 mm
10:45 AM 68.9°F20.5°C 56.2°F13.4°C 64% 8.0 mph W12.9 kmh W 15.0 mph24.1 kmh 29.93 in1013.5 mb 0.00 in0.0 mm 0.00 in0.0 mm 0.00 in0.0 mm
10:50 AM 69.3°F20.7°C 56.2°F13.4°C 63% 7.0 mph WNW11.3 kmh WNW 18.0 mph29.0 kmh 29.93 in1013.5 mb 0.00 in0.0 mm 0.00 in0.0 mm 0.00 in0.0 mm
10:55 AM 69.5°F20.8°C 56.8°F13.8°C 64% 6.0 mph W9.7 kmh W 21.0 mph33.8 kmh 29.93 in1013.5 mb 0.00 in0.0 mm 0.00 in0.0 mm 0.00 in0.0 mm
11:00 AM 69.7°F20.9°C 56.1°F13.4°C 62% 7.0 mph W11.3 kmh W 17.0 mph27.4 kmh 29.94 in1013.9 mb 0.00 in0.0 mm 0.00 in0.0 mm 0.00 in0.0 mm
11:05 AM 69.7°F20.9°C 56.1°F13.4°C 62% 8.0 mph W12.9 kmh W 16.0 mph25.7 kmh 29.93 in1013.5 mb 0.00 in0.0 mm 0.00 in0.0 mm 0.00 in0.0 mm
11:10 AM 69.9°F21.1°C 56.3°F13.5°C 62% 7.0 mph W11.3 kmh W 15.0 mph24.1 kmh 29.93 in1013.5 mb 0.00 in0.0 mm 0.00 in0.0 mm 0.00 in0.0 mm
11:15 AM 70.4°F21.3°C 56.7°F13.7°C 62% 7.0 mph W11.3 kmh W 19.0 mph30.6 kmh 29.93 in1013.5 mb 0.00 in0.0 mm 0.00 in0.0 mm 0.00 in0.0 mm
11:20 AM 70.4°F21.3°C 57.2°F14.0°C 63% 7.0 mph W11.3 kmh W 19.0 mph30.6 kmh 29.93 in1013.5 mb 0.00 in0.0 mm 0.00 in0.0 mm 0.00 in0.0 mm
11:25 AM 70.8°F21.6°C 56.7°F13.7°C 61% 7.0 mph W11.3 kmh W 17.0 mph27.4 kmh 29.93 in1013.5 mb 0.00 in0.0 mm 0.00 in0.0 mm 0.00 in0.0 mm
11:30 AM 71.3°F21.8°C 57.1°F13.9°C 61% 7.0 mph W11.3 kmh W 25.0 mph40.2 kmh 29.92 in1013.2 mb 0.00 in0.0 mm 0.00 in0.0 mm 0.00 in0.0 mm
11:35 AM 71.4°F21.9°C 57.2°F14.0°C 61% 6.0 mph W9.7 kmh W 18.0 mph29.0 kmh 29.92 in1013.2 mb 0.00 in0.0 mm 0.00 in0.0 mm 0.00 in0.0 mm
11:40 AM 71.3°F21.8°C 56.7°F13.7°C 60% 9.0 mph W14.5 kmh W 22.0 mph35.4 kmh 29.93 in1013.5 mb 0.00 in0.0 mm 0.00 in0.0 mm 0.00 in0.0 mm
11:45 AM 71.2°F21.8°C 56.6°F13.7°C 60% 8.0 mph WNW12.9 kmh WNW 21.0 mph33.8 kmh 29.93 in1013.5 mb 0.00 in0.0 mm 0.00 in0.0 mm 0.00 in0.0 mm
11:50 AM 71.5°F21.9°C 56.4°F13.6°C 59% 8.0 mph W12.9 kmh W 18.0 mph29.0 kmh 29.93 in1013.5 mb 0.00 in0.0 mm 0.00 in0.0 mm 0.00 in0.0 mm
11:55 AM 71.7°F22.1°C 57.1°F13.9°C 60% 6.0 mph W9.7 kmh W 19.0 mph30.6 kmh 29.93 in1013.5 mb 0.00 in0.0 mm 0.00 in0.0 mm 0.00 in0.0 mm
12:00 PM 72.5°F22.5°C 57.8°F14.3°C 60% 4.0 mph W6.4 kmh W 15.0 mph24.1 kmh 29.92 in1013.2 mb 0.00 in0.0 mm 0.00 in0.0 mm 0.00 in0.0 mm
12:05 PM 72.8°F22.7°C 57.6°F14.2°C 59% 5.0 mph WNW8.0 kmh WNW 16.0 mph25.7 kmh 29.93 in1013.5 mb 0.00 in0.0 mm 0.00 in0.0 mm 0.00 in0.0 mm
12:10 PM 72.5°F22.5°C 56.9°F13.8°C 58% 7.0 mph WNW11.3 kmh WNW 21.0 mph33.8 kmh 29.92 in1013.2 mb 0.00 in0.0 mm 0.00 in0.0 mm 0.00 in0.0 mm
12:15 PM 72.6°F22.6°C 57.0°F13.9°C 58% 7.0 mph WSW11.3 kmh WSW 18.0 mph29.0 kmh 29.92 in1013.2 mb 0.00 in0.0 mm 0.00 in0.0 mm 0.00 in0.0 mm
12:20 PM 73.2°F22.9°C 56.5°F13.6°C 56% 6.0 mph WNW9.7 kmh WNW 20.0 mph32.2 kmh 29.91 in1012.9 mb 0.00 in0.0 mm 0.00 in0.0 mm 0.00 in0.0 mm
12:25 PM 72.8°F22.7°C 57.1°F13.9°C 58% 7.0 mph W11.3 kmh W 17.0 mph27.4 kmh 29.91 in1012.9 mb 0.00 in0.0 mm 0.00 in0.0 mm 0.00 in0.0 mm
12:30 PM 73.0°F22.8°C 56.9°F13.8°C 57% 8.0 mph W12.9 kmh W 20.0 mph32.2 kmh 29.91 in1012.9 mb 0.00 in0.0 mm 0.00 in0.0 mm 0.00 in0.0 mm
12:35 PM 73.4°F23.0°C 56.7°F13.7°C 56% 7.0 mph W11.3 kmh W 19.0 mph30.6 kmh 29.91 in1012.9 mb 0.00 in0.0 mm 0.00 in0.0 mm 0.00 in0.0 mm
12:40 PM 73.9°F23.3°C 56.7°F13.7°C 55% 5.0 mph WNW8.0 kmh WNW 12.0 mph19.3 kmh 29.91 in1012.9 mb 0.00 in0.0 mm 0.00 in0.0 mm 0.00 in0.0 mm
12:45 PM 73.8°F23.2°C 56.6°F13.7°C 55% 9.0 mph W14.5 kmh W 20.0 mph32.2 kmh 29.91 in1012.9 mb 0.00 in0.0 mm 0.00 in0.0 mm 0.00 in0.0 mm
12:50 PM 74.6°F23.7°C 57.3°F14.1°C 55% 7.0 mph W11.3 kmh W 25.0 mph40.2 kmh 29.91 in1012.9 mb 0.00 in0.0 mm 0.00 in0.0 mm 0.00 in0.0 mm
12:55 PM 75.3°F24.1°C 57.5°F14.2°C 54% 6.0 mph WNW9.7 kmh WNW 19.0 mph30.6 kmh 29.91 in1012.9 mb 0.00 in0.0 mm 0.00 in0.0 mm 0.00 in0.0 mm
01:00 PM 74.8°F23.8°C 57.0°F13.9°C 54% 10.0 mph W16.1 kmh W 22.0 mph35.4 kmh 29.91 in1012.9 mb 0.00 in0.0 mm 0.00 in0.0 mm 0.00 in0.0 mm
01:05 PM 75.8°F24.3°C 57.4°F14.1°C 53% 6.0 mph W9.7 kmh W 16.0 mph25.7 kmh 29.90 in1012.5 mb 0.00 in0.0 mm 0.00 in0.0 mm 0.00 in0.0 mm
01:10 PM 75.8°F24.3°C 57.4°F14.1°C 53% 6.0 mph W9.7 kmh W 15.0 mph24.1 kmh 29.90 in1012.5 mb 0.00 in0.0 mm 0.00 in0.0 mm 0.00 in0.0 mm
01:15 PM 75.5°F24.2°C 57.2°F14.0°C 53% 6.0 mph WNW9.7 kmh WNW 16.0 mph25.7 kmh 29.90 in1012.5 mb 0.00 in0.0 mm 0.00 in0.0 mm 0.00 in0.0 mm
01:20 PM 75.9°F24.4°C 58.0°F14.4°C 54% 6.0 mph W9.7 kmh W 19.0 mph30.6 kmh 29.90 in1012.5 mb 0.00 in0.0 mm 0.00 in0.0 mm 0.00 in0.0 mm
01:25 PM 76.5°F24.7°C 57.0°F13.9°C 51% 6.0 mph WSW9.7 kmh WSW 19.0 mph30.6 kmh 29.90 in1012.5 mb 0.00 in0.0 mm 0.00 in0.0 mm 0.00 in0.0 mm
01:30 PM 76.5°F24.7°C 57.0°F13.9°C 51% 8.0 mph WNW12.9 kmh WNW 26.0 mph41.8 kmh 29.90 in1012.5 mb 0.00 in0.0 mm 0.00 in0.0 mm 0.00 in0.0 mm
01:35 PM 76.3°F24.6°C 57.4°F14.1°C 52% 7.0 mph W11.3 kmh W 26.0 mph41.8 kmh 29.90 in1012.5 mb 0.00 in0.0 mm 0.00 in0.0 mm 0.00 in0.0 mm
01:40 PM 77.4°F25.2°C 57.3°F14.1°C 50% 4.0 mph W6.4 kmh W 16.0 mph25.7 kmh 29.90 in1012.5 mb 0.00 in0.0 mm 0.00 in0.0 mm 0.00 in0.0 mm
01:45 PM 77.6°F25.3°C 56.9°F13.8°C 49% 5.0 mph W8.0 kmh W 14.0 mph22.5 kmh 29.89 in1012.2 mb 0.00 in0.0 mm 0.00 in0.0 mm 0.00 in0.0 mm
01:50 PM 78.0°F25.6°C 57.3°F14.1°C 49% 5.0 mph WNW8.0 kmh WNW 15.0 mph24.1 kmh 29.89 in1012.2 mb 0.00 in0.0 mm 0.00 in0.0 mm 0.00 in0.0 mm
01:55 PM 77.8°F25.4°C 56.5°F13.6°C 48% 6.0 mph WNW9.7 kmh WNW 15.0 mph24.1 kmh 29.89 in1012.2 mb 0.00 in0.0 mm 0.00 in0.0 mm 0.00 in0.0 mm
02:00 PM 77.7°F25.4°C 56.4°F13.6°C 48% 6.0 mph WNW9.7 kmh WNW 15.0 mph24.1 kmh 29.89 in1012.2 mb 0.00 in0.0 mm 0.00 in0.0 mm 0.00 in0.0 mm
02:05 PM 77.5°F25.3°C 55.7°F13.2°C 47% 8.0 mph W12.9 kmh W 18.0 mph29.0 kmh 29.89 in1012.2 mb 0.00 in0.0 mm 0.00 in0.0 mm 0.00 in0.0 mm
02:10 PM 77.6°F25.3°C 56.3°F13.5°C 48% 7.0 mph W11.3 kmh W 21.0 mph33.8 kmh 29.89 in1012.2 mb 0.00 in0.0 mm 0.00 in0.0 mm 0.00 in0.0 mm
02:15 PM 77.6°F25.3°C 56.9°F13.8°C 49% 7.0 mph W11.3 kmh W 18.0 mph29.0 kmh 29.89 in1012.2 mb 0.00 in0.0 mm 0.00 in0.0 mm 0.00 in0.0 mm
02:20 PM 77.5°F25.3°C 56.8°F13.8°C 49% 8.0 mph WNW12.9 kmh WNW 18.0 mph29.0 kmh 29.89 in1012.2 mb 0.00 in0.0 mm 0.00 in0.0 mm 0.00 in0.0 mm
02:25 PM 78.1°F25.6°C 55.6°F13.1°C 46% 7.0 mph W11.3 kmh W 18.0 mph29.0 kmh 29.89 in1012.2 mb 0.00 in0.0 mm 0.00 in0.0 mm 0.00 in0.0 mm
02:30 PM 77.9°F25.5°C 55.4°F13.0°C 46% 7.0 mph W11.3 kmh W 18.0 mph29.0 kmh 29.88 in1011.9 mb 0.00 in0.0 mm 0.00 in0.0 mm 0.00 in0.0 mm
02:35 PM 78.3°F25.7°C 56.4°F13.6°C 47% 6.0 mph W9.7 kmh W 16.0 mph25.7 kmh 29.89 in1012.2 mb 0.00 in0.0 mm 0.00 in0.0 mm 0.00 in0.0 mm
02:40 PM 78.5°F25.8°C 55.4°F13.0°C 45% 8.0 mph WSW12.9 kmh WSW 18.0 mph29.0 kmh 29.89 in1012.2 mb 0.00 in0.0 mm 0.00 in0.0 mm 0.00 in0.0 mm
02:45 PM 78.5°F25.8°C 54.8°F12.7°C 44% 6.0 mph WSW9.7 kmh WSW 16.0 mph25.7 kmh 29.89 in1012.2 mb 0.00 in0.0 mm 0.00 in0.0 mm 0.00 in0.0 mm
02:50 PM 78.4°F25.8°C 54.7°F12.6°C 44% 8.0 mph W12.9 kmh W 17.0 mph27.4 kmh 29.89 in1012.2 mb 0.00 in0.0 mm 0.00 in0.0 mm 0.00 in0.0 mm
02:55 PM 78.6°F25.9°C 54.8°F12.7°C 44% 7.0 mph WSW11.3 kmh WSW 22.0 mph35.4 kmh 29.88 in1011.9 mb 0.00 in0.0 mm 0.00 in0.0 mm 0.00 in0.0 mm
03:00 PM 78.9°F26.1°C 55.7°F13.2°C 45% 8.0 mph W12.9 kmh W 16.0 mph25.7 kmh 29.88 in1011.9 mb 0.00 in0.0 mm 0.00 in0.0 mm 0.00 in0.0 mm
03:05 PM 79.1°F26.2°C 55.3°F12.9°C 44% 8.0 mph WNW12.9 kmh WNW 17.0 mph27.4 kmh 29.88 in1011.9 mb 0.00 in0.0 mm 0.00 in0.0 mm 0.00 in0.0 mm
03:10 PM 80.2°F26.8°C 55.0°F12.8°C 42% 6.0 mph NW9.7 kmh NW 18.0 mph29.0 kmh 29.88 in1011.9 mb 0.00 in0.0 mm 0.00 in0.0 mm 0.00 in0.0 mm
03:15 PM 80.0°F26.7°C 55.5°F13.1°C 43% 5.0 mph NW8.0 kmh NW 18.0 mph29.0 kmh 29.88 in1011.9 mb 0.00 in0.0 mm 0.00 in0.0 mm 0.00 in0.0 mm
03:20 PM 79.9°F26.6°C 54.1°F12.3°C 41% 8.0 mph W12.9 kmh W 19.0 mph30.6 kmh 29.88 in1011.9 mb 0.00 in0.0 mm 0.00 in0.0 mm 0.00 in0.0 mm
03:25 PM 80.1°F26.7°C 54.9°F12.7°C 42% 7.0 mph WNW11.3 kmh WNW 20.0 mph32.2 kmh 29.88 in1011.9 mb 0.00 in0.0 mm 0.00 in0.0 mm 0.00 in0.0 mm
03:30 PM 80.0°F26.7°C 54.8°F12.7°C 42% 9.0 mph W14.5 kmh W 23.0 mph37.0 kmh 29.88 in1011.9 mb 0.00 in0.0 mm 0.00 in0.0 mm 0.00 in0.0 mm
03:35 PM 80.1°F26.7°C 54.2°F12.3°C 41% 8.0 mph W12.9 kmh W 16.0 mph25.7 kmh 29.88 in1011.9 mb 0.00 in0.0 mm 0.00 in0.0 mm 0.00 in0.0 mm
03:40 PM 80.4°F26.9°C 53.8°F12.1°C 40% 7.0 mph W11.3 kmh W 13.0 mph20.9 kmh 29.88 in1011.9 mb 0.00 in0.0 mm 0.00 in0.0 mm 0.00 in0.0 mm
03:45 PM 80.5°F26.9°C 52.5°F11.4°C 38% 6.0 mph WNW9.7 kmh WNW 13.0 mph20.9 kmh 29.88 in1011.9 mb 0.00 in0.0 mm 0.00 in0.0 mm 0.00 in0.0 mm
03:50 PM 80.9°F27.2°C 53.6°F12.0°C 39% 6.0 mph W9.7 kmh W 16.0 mph25.7 kmh 29.88 in1011.9 mb 0.00 in0.0 mm 0.00 in0.0 mm 0.00 in0.0 mm
03:55 PM 80.5°F26.9°C 52.5°F11.4°C 38% 8.0 mph W12.9 kmh W 17.0 mph27.4 kmh 29.88 in1011.9 mb 0.00 in0.0 mm 0.00 in0.0 mm 0.00 in0.0 mm
04:00 PM 81.1°F27.3°C 53.1°F11.7°C 38% 5.0 mph W8.0 kmh W 14.0 mph22.5 kmh 29.88 in1011.9 mb 0.00 in0.0 mm 0.00 in0.0 mm 0.00 in0.0 mm
04:05 PM 81.3°F27.4°C 53.9°F12.2°C 39% 5.0 mph WNW8.0 kmh WNW 14.0 mph22.5 kmh 29.88 in1011.9 mb 0.00 in0.0 mm 0.00 in0.0 mm 0.00 in0.0 mm
04:10 PM 81.1°F27.3°C 51.6°F10.9°C 36% 6.0 mph NW9.7 kmh NW 18.0 mph29.0 kmh 29.87 in1011.5 mb 0.00 in0.0 mm 0.00 in0.0 mm 0.00 in0.0 mm
04:15 PM 81.1°F27.3°C 53.1°F11.7°C 38% 5.0 mph W8.0 kmh W 12.0 mph19.3 kmh 29.88 in1011.9 mb 0.00 in0.0 mm 0.00 in0.0 mm 0.00 in0.0 mm
04:20 PM 81.6°F27.6°C 52.0°F11.1°C 36% 5.0 mph W8.0 kmh W 11.0 mph17.7 kmh 29.87 in1011.5 mb 0.00 in0.0 mm 0.00 in0.0 mm 0.00 in0.0 mm
04:25 PM 81.6°F27.6°C 51.3°F10.7°C 35% 5.0 mph WNW8.0 kmh WNW 15.0 mph24.1 kmh 29.87 in1011.5 mb 0.00 in0.0 mm 0.00 in0.0 mm 0.00 in0.0 mm
04:30 PM 81.7°F27.6°C 52.1°F11.2°C 36% 5.0 mph W8.0 kmh W 11.0 mph17.7 kmh 29.88 in1011.9 mb 0.00 in0.0 mm 0.00 in0.0 mm 0.00 in0.0 mm
04:35 PM 81.6°F27.6°C 52.0°F11.1°C 36% 5.0 mph W8.0 kmh W 13.0 mph20.9 kmh 29.87 in1011.5 mb 0.00 in0.0 mm 0.00 in0.0 mm 0.00 in0.0 mm
04:40 PM 81.5°F27.5°C 51.9°F11.1°C 36% 6.0 mph WSW9.7 kmh WSW 14.0 mph22.5 kmh 29.87 in1011.5 mb 0.00 in0.0 mm 0.00 in0.0 mm 0.00 in0.0 mm
04:45 PM 81.1°F27.3°C 50.8°F10.4°C 35% 7.0 mph W11.3 kmh W 16.0 mph25.7 kmh 29.87 in1011.5 mb 0.00 in0.0 mm 0.00 in0.0 mm 0.00 in0.0 mm
04:50 PM 81.1°F27.3°C 50.0°F10.0°C 34% 6.0 mph W9.7 kmh W 12.0 mph19.3 kmh 29.87 in1011.5 mb 0.00 in0.0 mm 0.00 in0.0 mm 0.00 in0.0 mm
04:55 PM 81.0°F27.2°C 50.7°F10.4°C 35% 6.0 mph W9.7 kmh W 14.0 mph22.5 kmh 29.87 in1011.5 mb 0.00 in0.0 mm 0.00 in0.0 mm 0.00 in0.0 mm
05:00 PM 80.9°F27.2°C 51.4°F10.8°C 36% 5.0 mph W8.0 kmh W 11.0 mph17.7 kmh 29.87 in1011.5 mb 0.00 in0.0 mm 0.00 in0.0 mm 0.00 in0.0 mm
05:05 PM 81.3°F27.4°C 51.0°F10.6°C 35% 4.0 mph WNW6.4 kmh WNW 12.0 mph19.3 kmh 29.87 in1011.5 mb 0.00 in0.0 mm 0.00 in0.0 mm 0.00 in0.0 mm
05:10 PM 81.0°F27.2°C 51.5°F10.8°C 36% 5.0 mph W8.0 kmh W 14.0 mph22.5 kmh 29.87 in1011.5 mb 0.00 in0.0 mm 0.00 in0.0 mm 0.00 in0.0 mm
05:15 PM 80.8°F27.1°C 50.6°F10.3°C 35% 5.0 mph WSW8.0 kmh WSW 15.0 mph24.1 kmh 29.87 in1011.5 mb 0.00 in0.0 mm 0.00 in0.0 mm 0.00 in0.0 mm
05:20 PM 80.6°F27.0°C 51.2°F10.7°C 36% 7.0 mph W11.3 kmh W 16.0 mph25.7 kmh 29.87 in1011.5 mb 0.00 in0.0 mm 0.00 in0.0 mm 0.00 in0.0 mm
05:25 PM 80.3°F26.8°C 51.6°F10.9°C 37% 7.0 mph W11.3 kmh W 19.0 mph30.6 kmh 29.86 in1011.2 mb 0.00 in0.0 mm 0.00 in0.0 mm 0.00 in0.0 mm
05:30 PM 80.4°F26.9°C 51.7°F10.9°C 37% 6.0 mph WNW9.7 kmh WNW 14.0 mph22.5 kmh 29.86 in1011.2 mb 0.00 in0.0 mm 0.00 in0.0 mm 0.00 in0.0 mm
05:35 PM 80.2°F26.8°C 51.5°F10.8°C 37% 7.0 mph W11.3 kmh W 14.0 mph22.5 kmh 29.87 in1011.5 mb 0.00 in0.0 mm 0.00 in0.0 mm 0.00 in0.0 mm
05:40 PM 80.1°F26.7°C 52.2°F11.2°C 38% 6.0 mph W9.7 kmh W 17.0 mph27.4 kmh 29.86 in1011.2 mb 0.00 in0.0 mm 0.00 in0.0 mm 0.00 in0.0 mm
05:45 PM 79.9°F26.6°C 52.7°F11.5°C 39% 7.0 mph W11.3 kmh W 18.0 mph29.0 kmh 29.87 in1011.5 mb 0.00 in0.0 mm 0.00 in0.0 mm 0.00 in0.0 mm
05:50 PM 79.8°F26.6°C 51.9°F11.1°C 38% 7.0 mph W11.3 kmh W 19.0 mph30.6 kmh 29.86 in1011.2 mb 0.00 in0.0 mm 0.00 in0.0 mm 0.00 in0.0 mm
05:55 PM 79.8°F26.6°C 52.6°F11.4°C 39% 5.0 mph W8.0 kmh W 14.0 mph22.5 kmh 29.86 in1011.2 mb 0.00 in0.0 mm 0.00 in0.0 mm 0.00 in0.0 mm
06:00 PM 79.8°F26.6°C 53.3°F11.8°C 40% 5.0 mph W8.0 kmh W 12.0 mph19.3 kmh 29.86 in1011.2 mb 0.00 in0.0 mm 0.00 in0.0 mm 0.00 in0.0 mm
06:05 PM 79.5°F26.4°C 52.3°F11.3°C 39% 6.0 mph W9.7 kmh W 15.0 mph24.1 kmh 29.86 in1011.2 mb 0.00 in0.0 mm 0.00 in0.0 mm 0.00 in0.0 mm
06:10 PM 79.4°F26.3°C 53.6°F12.0°C 41% 6.0 mph W9.7 kmh W 18.0 mph29.0 kmh 29.86 in1011.2 mb 0.00 in0.0 mm 0.00 in0.0 mm 0.00 in0.0 mm
06:15 PM 79.2°F26.2°C 54.1°F12.3°C 42% 4.0 mph W6.4 kmh W 12.0 mph19.3 kmh 29.86 in1011.2 mb 0.00 in0.0 mm 0.00 in0.0 mm 0.00 in0.0 mm
06:20 PM 79.0°F26.1°C 54.6°F12.6°C 43% 6.0 mph WSW9.7 kmh WSW 15.0 mph24.1 kmh 29.86 in1011.2 mb 0.00 in0.0 mm 0.00 in0.0 mm 0.00 in0.0 mm
06:25 PM 78.8°F26.0°C 53.7°F12.1°C 42% 5.0 mph WNW8.0 kmh WNW 14.0 mph22.5 kmh 29.86 in1011.2 mb 0.00 in0.0 mm 0.00 in0.0 mm 0.00 in0.0 mm
06:30 PM 78.7°F25.9°C 54.3°F12.4°C 43% 5.0 mph W8.0 kmh W 12.0 mph19.3 kmh 29.86 in1011.2 mb 0.00 in0.0 mm 0.00 in0.0 mm 0.00 in0.0 mm
06:35 PM 78.6°F25.9°C 54.8°F12.7°C 44% 6.0 mph W9.7 kmh W 15.0 mph24.1 kmh 29.86 in1011.2 mb 0.00 in0.0 mm 0.00 in0.0 mm 0.00 in0.0 mm
06:40 PM 78.4°F25.8°C 54.7°F12.6°C 44% 4.0 mph WSW6.4 kmh WSW 11.0 mph17.7 kmh 29.86 in1011.2 mb 0.00 in0.0 mm 0.00 in0.0 mm 0.00 in0.0 mm
06:45 PM 78.2°F25.7°C 53.9°F12.2°C 43% 6.0 mph W9.7 kmh W 14.0 mph22.5 kmh 29.86 in1011.2 mb 0.00 in0.0 mm 0.00 in0.0 mm 0.00 in0.0 mm
06:50 PM 78.2°F25.7°C 53.9°F12.2°C 43% 5.0 mph W8.0 kmh W 13.0 mph20.9 kmh 29.86 in1011.2 mb 0.00 in0.0 mm 0.00 in0.0 mm 0.00 in0.0 mm
06:55 PM 77.9°F25.5°C 54.2°F12.3°C 44% 3.0 mph SSW4.8 kmh SSW 7.0 mph11.3 kmh 29.86 in1011.2 mb 0.00 in0.0 mm 0.00 in0.0 mm 0.00 in0.0 mm
07:00 PM 77.6°F25.3°C 54.6°F12.6°C 45% 4.0 mph SW6.4 kmh SW 12.0 mph19.3 kmh 29.86 in1011.2 mb 0.00 in0.0 mm 0.00 in0.0 mm 0.00 in0.0 mm
07:05 PM 77.2°F25.1°C 54.8°F12.7°C 46% 3.0 mph SW4.8 kmh SW 11.0 mph17.7 kmh 29.86 in1011.2 mb 0.00 in0.0 mm 0.00 in0.0 mm 0.00 in0.0 mm
07:10 PM 76.6°F24.8°C 55.4°F13.0°C 48% 4.0 mph W6.4 kmh W 11.0 mph17.7 kmh 29.86 in1011.2 mb 0.00 in0.0 mm 0.00 in0.0 mm 0.00 in0.0 mm
07:15 PM 76.5°F24.7°C 55.3°F12.9°C 48% 5.0 mph WSW8.0 kmh WSW 12.0 mph19.3 kmh 29.85 in1010.8 mb 0.00 in0.0 mm 0.00 in0.0 mm 0.00 in0.0 mm
07:20 PM 76.4°F24.7°C 55.2°F12.9°C 48% 5.0 mph WSW8.0 kmh WSW 10.0 mph16.1 kmh 29.85 in1010.8 mb 0.00 in0.0 mm 0.00 in0.0 mm 0.00 in0.0 mm
07:25 PM 76.1°F24.5°C 55.0°F12.8°C 48% 3.0 mph WSW4.8 kmh WSW 10.0 mph16.1 kmh 29.85 in1010.8 mb 0.00 in0.0 mm 0.00 in0.0 mm 0.00 in0.0 mm
07:30 PM 75.8°F24.3°C 55.3°F12.9°C 49% 3.0 mph W4.8 kmh W 6.0 mph9.7 kmh 29.85 in1010.8 mb 0.00 in0.0 mm 0.00 in0.0 mm 0.00 in0.0 mm
07:35 PM 75.7°F24.3°C 55.2°F12.9°C 49% 3.0 mph SW4.8 kmh SW 7.0 mph11.3 kmh 29.86 in1011.2 mb 0.00 in0.0 mm 0.00 in0.0 mm 0.00 in0.0 mm
07:40 PM 75.5°F24.2°C 55.0°F12.8°C 49% 2.0 mph W3.2 kmh W 5.0 mph8.0 kmh 29.86 in1011.2 mb 0.00 in0.0 mm 0.00 in0.0 mm 0.00 in0.0 mm
07:45 PM 75.2°F24.0°C 54.7°F12.6°C 49% 2.0 mph WNW3.2 kmh WNW 7.0 mph11.3 kmh 29.86 in1011.2 mb 0.00 in0.0 mm 0.00 in0.0 mm 0.00 in0.0 mm
07:50 PM 75.1°F23.9°C 54.6°F12.6°C 49% 2.0 mph SSW3.2 kmh SSW 5.0 mph8.0 kmh 29.86 in1011.2 mb 0.00 in0.0 mm 0.00 in0.0 mm 0.00 in0.0 mm
07:55 PM 74.8°F23.8°C 54.9°F12.7°C 50% 2.0 mph NW3.2 kmh NW 6.0 mph9.7 kmh 29.86 in1011.2 mb 0.00 in0.0 mm 0.00 in0.0 mm 0.00 in0.0 mm
08:00 PM 74.4°F23.6°C 54.5°F12.5°C 50% 2.0 mph W3.2 kmh W 7.0 mph11.3 kmh 29.86 in1011.2 mb 0.00 in0.0 mm 0.00 in0.0 mm 0.00 in0.0 mm
08:05 PM 75.0°F23.9°C 54.5°F12.5°C 49% 2.0 mph SSW3.2 kmh SSW 7.0 mph11.3 kmh 29.87 in1011.5 mb 0.00 in0.0 mm 0.00 in0.0 mm 0.00 in0.0 mm
08:10 PM 74.9°F23.8°C 55.0°F12.8°C 50% 1.0 mph SSW1.6 kmh SSW 4.0 mph6.4 kmh 29.87 in1011.5 mb 0.00 in0.0 mm 0.00 in0.0 mm 0.00 in0.0 mm
08:15 PM 73.8°F23.2°C 55.6°F13.1°C 53% 1.0 mph W1.6 kmh W 3.0 mph4.8 kmh 29.87 in1011.5 mb 0.00 in0.0 mm 0.00 in0.0 mm 0.00 in0.0 mm
08:20 PM 72.9°F22.7°C 54.8°F12.7°C 53% 1.0 mph W1.6 kmh W 4.0 mph6.4 kmh 29.87 in1011.5 mb 0.00 in0.0 mm 0.00 in0.0 mm 0.00 in0.0 mm
08:25 PM 72.6°F22.6°C 55.5°F13.1°C 55% 1.0 mph WNW1.6 kmh WNW 2.0 mph3.2 kmh 29.87 in1011.5 mb 0.00 in0.0 mm 0.00 in0.0 mm 0.00 in0.0 mm
08:30 PM 71.6°F22.0°C 54.1°F12.3°C 54% 1.0 mph WNW1.6 kmh WNW 2.0 mph3.2 kmh 29.87 in1011.5 mb 0.00 in0.0 mm 0.00 in0.0 mm 0.00 in0.0 mm
08:35 PM 70.7°F21.5°C 54.2°F12.3°C 56% 1.0 mph WNW1.6 kmh WNW 2.0 mph3.2 kmh 29.87 in1011.5 mb 0.00 in0.0 mm 0.00 in0.0 mm 0.00 in0.0 mm
08:40 PM 70.3°F21.3°C 56.2°F13.4°C 61% 1.0 mph WNW1.6 kmh WNW 3.0 mph4.8 kmh 29.88 in1011.9 mb 0.00 in0.0 mm 0.00 in0.0 mm 0.00 in0.0 mm
08:45 PM 70.0°F21.1°C 55.0°F12.8°C 59% 1.0 mph WNW1.6 kmh WNW 2.0 mph3.2 kmh 29.88 in1011.9 mb 0.00 in0.0 mm 0.00 in0.0 mm 0.00 in0.0 mm
08:50 PM 69.2°F20.7°C 55.2°F12.9°C 61% Calm Calm 2.0 mph3.2 kmh 29.88 in1011.9 mb 0.00 in0.0 mm 0.00 in0.0 mm 0.00 in0.0 mm
08:55 PM 68.8°F20.4°C 54.8°F12.7°C 61% 1.0 mph WNW1.6 kmh WNW 3.0 mph4.8 kmh 29.88 in1011.9 mb 0.00 in0.0 mm 0.00 in0.0 mm 0.00 in0.0 mm
09:00 PM 67.7°F19.8°C 55.9°F13.3°C 66% 1.0 mph WNW1.6 kmh WNW 2.0 mph3.2 kmh 29.89 in1012.2 mb 0.00 in0.0 mm 0.00 in0.0 mm 0.00 in0.0 mm
09:05 PM 68.0°F20.0°C 55.4°F13.0°C 64% 1.0 mph WNW1.6 kmh WNW 2.0 mph3.2 kmh 29.89 in1012.2 mb 0.00 in0.0 mm 0.00 in0.0 mm 0.00 in0.0 mm
09:10 PM 67.9°F19.9°C 55.7°F13.2°C 65% 1.0 mph WNW1.6 kmh WNW 2.0 mph3.2 kmh 29.89 in1012.2 mb 0.00 in0.0 mm 0.00 in0.0 mm 0.00 in0.0 mm
09:15 PM 68.5°F20.3°C 55.0°F12.8°C 62% 1.0 mph WNW1.6 kmh WNW 3.0 mph4.8 kmh 29.89 in1012.2 mb 0.00 in0.0 mm 0.00 in0.0 mm 0.00 in0.0 mm
09:20 PM 69.6°F20.9°C 55.5°F13.1°C 61% 2.0 mph W3.2 kmh W 6.0 mph9.7 kmh 29.89 in1012.2 mb 0.00 in0.0 mm 0.00 in0.0 mm 0.00 in0.0 mm
09:25 PM 69.9°F21.1°C 55.4°F13.0°C 60% 1.0 mph W1.6 kmh W 4.0 mph6.4 kmh 29.89 in1012.2 mb 0.00 in0.0 mm 0.00 in0.0 mm 0.00 in0.0 mm
09:30 PM 69.7°F20.9°C 55.6°F13.1°C 61% 2.0 mph W3.2 kmh W 6.0 mph9.7 kmh 29.89 in1012.2 mb 0.00 in0.0 mm 0.00 in0.0 mm 0.00 in0.0 mm
09:35 PM 69.8°F21.0°C 55.7°F13.2°C 61% 1.0 mph W1.6 kmh W 3.0 mph4.8 kmh 29.89 in1012.2 mb 0.00 in0.0 mm 0.00 in0.0 mm 0.00 in0.0 mm
09:40 PM 69.3°F20.7°C 55.7°F13.2°C 62% 1.0 mph W1.6 kmh W 6.0 mph9.7 kmh 29.89 in1012.2 mb 0.00 in0.0 mm 0.00 in0.0 mm 0.00 in0.0 mm
09:45 PM 69.3°F20.7°C 55.7°F13.2°C 62% 2.0 mph W3.2 kmh W 5.0 mph8.0 kmh 29.89 in1012.2 mb 0.00 in0.0 mm 0.00 in0.0 mm 0.00 in0.0 mm
09:50 PM 70.1°F21.2°C 56.0°F13.3°C 61% 3.0 mph W4.8 kmh W 7.0 mph11.3 kmh 29.90 in1012.5 mb 0.00 in0.0 mm 0.00 in0.0 mm 0.00 in0.0 mm
09:55 PM 70.4°F21.3°C 55.8°F13.2°C 60% 3.0 mph W4.8 kmh W 9.0 mph14.5 kmh 29.90 in1012.5 mb 0.00 in0.0 mm 0.00 in0.0 mm 0.00 in0.0 mm
10:00 PM 70.7°F21.5°C 55.7°F13.2°C 59% 2.0 mph WNW3.2 kmh WNW 6.0 mph9.7 kmh 29.90 in1012.5 mb 0.00 in0.0 mm 0.00 in0.0 mm 0.00 in0.0 mm
10:05 PM 70.7°F21.5°C 55.7°F13.2°C 59% 2.0 mph W3.2 kmh W 6.0 mph9.7 kmh 29.89 in1012.2 mb 0.00 in0.0 mm 0.00 in0.0 mm 0.00 in0.0 mm
10:10 PM 70.5°F21.4°C 55.9°F13.3°C 60% 3.0 mph W4.8 kmh W 5.0 mph8.0 kmh 29.89 in1012.2 mb 0.00 in0.0 mm 0.00 in0.0 mm 0.00 in0.0 mm
10:15 PM 70.5°F21.4°C 55.9°F13.3°C 60% 3.0 mph W4.8 kmh W 6.0 mph9.7 kmh 29.90 in1012.5 mb 0.00 in0.0 mm 0.00 in0.0 mm 0.00 in0.0 mm
10:20 PM 70.3°F21.3°C 55.7°F13.2°C 60% 3.0 mph W4.8 kmh W 9.0 mph14.5 kmh 29.90 in1012.5 mb 0.00 in0.0 mm 0.00 in0.0 mm 0.00 in0.0 mm
10:25 PM 70.2°F21.2°C 56.1°F13.4°C 61% 3.0 mph W4.8 kmh W 12.0 mph19.3 kmh 29.90 in1012.5 mb 0.00 in0.0 mm 0.00 in0.0 mm 0.00 in0.0 mm
10:30 PM 70.1°F21.2°C 56.0°F13.3°C 61% 3.0 mph WSW4.8 kmh WSW 9.0 mph14.5 kmh 29.90 in1012.5 mb 0.00 in0.0 mm 0.00 in0.0 mm 0.00 in0.0 mm
10:35 PM 70.0°F21.1°C 55.5°F13.1°C 60% 3.0 mph W4.8 kmh W 7.0 mph11.3 kmh 29.90 in1012.5 mb 0.00 in0.0 mm 0.00 in0.0 mm 0.00 in0.0 mm
10:40 PM 70.0°F21.1°C 55.5°F13.1°C 60% 3.0 mph W4.8 kmh W 10.0 mph16.1 kmh 29.90 in1012.5 mb 0.00 in0.0 mm 0.00 in0.0 mm 0.00 in0.0 mm
10:45 PM 70.2°F21.2°C 55.2°F12.9°C 59% 5.0 mph W8.0 kmh W 12.0 mph19.3 kmh 29.90 in1012.5 mb 0.00 in0.0 mm 0.00 in0.0 mm 0.00 in0.0 mm
10:50 PM 70.4°F21.3°C 55.4°F13.0°C 59% 5.0 mph W8.0 kmh W 11.0 mph17.7 kmh 29.90 in1012.5 mb 0.00 in0.0 mm 0.00 in0.0 mm 0.00 in0.0 mm
10:55 PM 70.4°F21.3°C 55.4°F13.0°C 59% 3.0 mph WSW4.8 kmh WSW 7.0 mph11.3 kmh 29.90 in1012.5 mb 0.00 in0.0 mm 0.00 in0.0 mm 0.00 in0.0 mm
11:00 PM 70.2°F21.2°C 55.2°F12.9°C 59% 3.0 mph W4.8 kmh W 7.0 mph11.3 kmh 29.90 in1012.5 mb 0.00 in0.0 mm 0.00 in0.0 mm 0.00 in0.0 mm
11:05 PM 69.3°F20.7°C 54.8°F12.7°C 60% 1.0 mph W1.6 kmh W 2.0 mph3.2 kmh 29.90 in1012.5 mb 0.00 in0.0 mm 0.00 in0.0 mm 0.00 in0.0 mm
11:10 PM 69.0°F20.6°C 54.5°F12.5°C 60% 2.0 mph WNW3.2 kmh WNW 10.0 mph16.1 kmh 29.90 in1012.5 mb 0.00 in0.0 mm 0.00 in0.0 mm 0.00 in0.0 mm
11:15 PM 69.0°F20.6°C 54.5°F12.5°C 60% 1.0 mph WSW1.6 kmh WSW 5.0 mph8.0 kmh 29.90 in1012.5 mb 0.00 in0.0 mm 0.00 in0.0 mm 0.00 in0.0 mm
11:20 PM 68.7°F20.4°C 54.2°F12.3°C 60% 1.0 mph W1.6 kmh W 7.0 mph11.3 kmh 29.90 in1012.5 mb 0.00 in0.0 mm 0.00 in0.0 mm 0.00 in0.0 mm
11:25 PM 69.0°F20.6°C 54.5°F12.5°C 60% 1.0 mph W1.6 kmh W 3.0 mph4.8 kmh 29.90 in1012.5 mb 0.00 in0.0 mm 0.00 in0.0 mm 0.00 in0.0 mm
11:30 PM 69.3°F20.7°C 54.8°F12.7°C 60% 2.0 mph W3.2 kmh W 5.0 mph8.0 kmh 29.90 in1012.5 mb 0.00 in0.0 mm 0.00 in0.0 mm 0.00 in0.0 mm
11:35 PM 69.5°F20.8°C 55.0°F12.8°C 60% 2.0 mph W3.2 kmh W 10.0 mph16.1 kmh 29.90 in1012.5 mb 0.00 in0.0 mm 0.00 in0.0 mm 0.00 in0.0 mm
11:40 PM 70.2°F21.2°C 54.2°F12.3°C 57% 3.0 mph W4.8 kmh W 9.0 mph14.5 kmh 29.90 in1012.5 mb 0.00 in0.0 mm 0.00 in0.0 mm 0.00 in0.0 mm
11:45 PM 70.0°F21.1°C 54.1°F12.3°C 57% 1.0 mph S1.6 kmh S 3.0 mph4.8 kmh 29.90 in1012.5 mb 0.00 in0.0 mm 0.00 in0.0 mm 0.00 in0.0 mm
11:50 PM 69.6°F20.9°C 54.2°F12.3°C 58% 1.0 mph W1.6 kmh W 6.0 mph9.7 kmh 29.91 in1012.9 mb 0.00 in0.0 mm 0.00 in0.0 mm 0.00 in0.0 mm
11:55 PM 69.3°F20.7°C 54.3°F12.4°C 59% 2.0 mph W3.2 kmh W 4.0 mph6.4 kmh 29.91 in1012.9 mb 0.00 in0.0 mm 0.00 in0.0 mm 0.00 in0.0 mm